Time;durP1;ratioP1;P1;durP2;ratioP2;P2;SDS_P1;SDS_P2;PMS_P1;PMS_P2;Temp;Humidity;BMP_temperature;BMP_pressure;BME280_temperature;BME280_humidity;BME280_pressure;Samples;Min_cycle;Max_cycle;Signal;HPM_P1;HPM_P2
2021/07/16 00:02:24;;;;;;;;;;;18.60;94.60;;;;;;4934539;29;20452;-65
2021/07/16 00:04:50;;;;;;;;;;;18.50;94.70;;;;;;4943350;28;19922;-65
2021/07/16 00:07:15;;;;;;;;;;;18.50;94.70;;;;;;4939211;29;20001;-67
2021/07/16 00:09:41;;;;;;;;;;;18.40;95.10;;;;;;4940844;28;20033;-65
2021/07/16 00:12:06;;;;;;;;;;;18.40;95.00;;;;;;4935288;29;20468;-65
2021/07/16 00:14:32;;;;;;;;;;;18.40;94.90;;;;;;4942988;29;19919;-66
2021/07/16 00:16:58;;;;;;;;;;;18.40;94.80;;;;;;4936111;28;20065;-66
2021/07/16 00:19:24;;;;;;;;;;;18.30;94.90;;;;;;4940210;29;19937;-65
2021/07/16 00:21:49;;;;;;;;;;;18.30;94.80;;;;;;4938395;29;19930;-66
2021/07/16 00:24:15;;;;;;;;;;;18.20;95.00;;;;;;4940088;29;19933;-65
2021/07/16 00:26:40;;;;;;;;;;;18.20;95.20;;;;;;4935423;29;20483;-65
2021/07/16 00:29:06;;;;;;;;;;;18.20;95.10;;;;;;4937468;29;19984;-65
2021/07/16 00:31:34;;;;;;;;;;;18.30;94.90;;;;;;4937327;29;19919;-65
2021/07/16 00:34:00;;;;;;;;;;;18.20;94.90;;;;;;4943227;29;19922;-65
2021/07/16 00:36:25;;;;;;;;;;;18.20;94.80;;;;;;4939907;29;19941;-66
2021/07/16 00:38:50;;;;;;;;;;;18.20;95.00;;;;;;4940156;29;20584;-65
2021/07/16 00:41:16;;;;;;;;;;;18.20;95.00;;;;;;4934839;28;19915;-65
2021/07/16 00:43:41;;;;;;;;;;;18.20;95.00;;;;;;4932359;28;19922;-66
2021/07/16 00:46:07;;;;;;;;;;;18.10;94.90;;;;;;4937409;28;19942;-65
2021/07/16 00:48:32;;;;;;;;;;;18.10;94.70;;;;;;4937989;29;19986;-65
2021/07/16 00:50:58;;;;;;;;;;;18.10;94.90;;;;;;4936440;28;20105;-66
2021/07/16 00:53:24;;;;;;;;;;;18.10;94.80;;;;;;4936381;29;19942;-65
2021/07/16 00:55:49;;;;;;;;;;;18.00;94.70;;;;;;4941920;28;19981;-65
2021/07/16 00:58:15;;;;;;;;;;;18.00;94.80;;;;;;4933611;29;20036;-66
2021/07/16 01:00:41;;;;;;;;;;;18.10;94.80;;;;;;4941632;28;19929;-66
2021/07/16 01:03:07;;;;;;;;;;;18.10;94.70;;;;;;4939370;29;19919;-65
2021/07/16 01:05:34;;;;;;;;;;;18.10;94.60;;;;;;4943820;28;19926;-65
2021/07/16 01:08:00;;;;;;;;;;;18.10;94.40;;;;;;4939982;29;20391;-66
2021/07/16 01:10:26;;;;;;;;;;;18.00;94.30;;;;;;4942105;28;19985;-66
2021/07/16 01:12:52;;;;;;;;;;;18.00;94.40;;;;;;4935641;28;19924;-65
2021/07/16 01:15:19;;;;;;;;;;;18.00;94.30;;;;;;4939785;29;20158;-66
2021/07/16 01:17:45;;;;;;;;;;;18.10;94.20;;;;;;4938630;29;19924;-66
2021/07/16 01:20:15;;;;;;;;;;;18.10;93.90;;;;;;4942407;28;20001;-66
2021/07/16 01:22:41;;;;;;;;;;;18.10;93.90;;;;;;4939679;29;19918;-65
2021/07/16 01:25:12;;;;;;;;;;;18.10;93.80;;;;;;4947240;28;19997;-65
2021/07/16 01:27:38;;;;;;;;;;;18.10;93.90;;;;;;4943344;28;19921;-66
2021/07/16 01:30:05;;;;;;;;;;;18.10;93.80;;;;;;4943640;29;20001;-65
2021/07/16 01:32:31;;;;;;;;;;;18.10;93.70;;;;;;4945268;29;19918;-65
2021/07/16 01:34:56;;;;;;;;;;;18.10;93.80;;;;;;4943544;28;19918;-65
2021/07/16 01:37:22;;;;;;;;;;;18.00;93.90;;;;;;4948220;28;19926;-65
2021/07/16 01:39:47;;;;;;;;;;;18.00;93.50;;;;;;4941096;28;20025;-66
2021/07/16 01:42:13;;;;;;;;;;;18.10;93.40;;;;;;4944335;29;20647;-66
2021/07/16 01:44:40;;;;;;;;;;;18.00;93.80;;;;;;4942574;29;20001;-66
2021/07/16 01:47:05;;;;;;;;;;;18.10;93.80;;;;;;4939812;28;19977;-65
2021/07/16 01:49:31;;;;;;;;;;;18.10;93.50;;;;;;4943527;28;19923;-66
2021/07/16 01:51:57;;;;;;;;;;;18.10;93.50;;;;;;4934673;28;20413;-66
2021/07/16 01:54:22;;;;;;;;;;;18.10;93.60;;;;;;4936514;28;19931;-66
2021/07/16 01:56:48;;;;;;;;;;;18.10;93.50;;;;;;4947389;28;19922;-66
2021/07/16 01:59:13;;;;;;;;;;;18.00;93.40;;;;;;4946368;28;19929;-65
2021/07/16 02:01:39;;;;;;;;;;;18.00;93.50;;;;;;4941273;28;19914;-66
2021/07/16 02:04:05;;;;;;;;;;;18.10;93.40;;;;;;4943030;28;19941;-66
2021/07/16 02:06:31;;;;;;;;;;;18.10;93.30;;;;;;4946393;28;20242;-65
2021/07/16 02:08:57;;;;;;;;;;;18.10;93.40;;;;;;4944418;28;20331;-65
2021/07/16 02:11:22;;;;;;;;;;;18.10;93.30;;;;;;4940698;29;20005;-66
2021/07/16 02:13:49;;;;;;;;;;;18.10;93.30;;;;;;4938083;28;19922;-66
2021/07/16 02:16:15;;;;;;;;;;;18.10;93.40;;;;;;4945718;28;19978;-65
2021/07/16 02:18:40;;;;;;;;;;;18.10;93.10;;;;;;4941715;28;19914;-65
2021/07/16 02:21:06;;;;;;;;;;;18.00;93.30;;;;;;4940165;28;19944;-66
2021/07/16 02:23:31;;;;;;;;;;;18.00;93.50;;;;;;4942407;28;19934;-64
2021/07/16 02:25:57;;;;;;;;;;;18.00;93.40;;;;;;4944835;28;19954;-66
2021/07/16 02:28:27;;;;;;;;;;;18.00;93.30;;;;;;4943621;29;20526;-65
2021/07/16 02:30:53;;;;;;;;;;;18.00;93.40;;;;;;4939671;28;19929;-65
2021/07/16 02:33:19;;;;;;;;;;;18.00;93.40;;;;;;4945598;28;19919;-66
2021/07/16 02:35:46;;;;;;;;;;;17.90;93.40;;;;;;4941914;28;20472;-65
2021/07/16 02:38:12;;;;;;;;;;;18.00;93.30;;;;;;4936181;29;19915;-66
2021/07/16 02:40:38;;;;;;;;;;;18.00;93.40;;;;;;4947910;29;19925;-67
2021/07/16 02:43:04;;;;;;;;;;;18.00;93.20;;;;;;4935979;29;19958;-65
2021/07/16 02:45:29;;;;;;;;;;;18.00;93.10;;;;;;4939438;29;19945;-66
2021/07/16 02:47:55;;;;;;;;;;;17.90;93.10;;;;;;4939868;28;20248;-65
2021/07/16 02:50:20;;;;;;;;;;;17.80;93.60;;;;;;4938269;29;20352;-65
2021/07/16 02:52:46;;;;;;;;;;;17.80;93.20;;;;;;4933019;29;20038;-65
2021/07/16 02:55:12;;;;;;;;;;;17.80;93.50;;;;;;4945397;28;19919;-65
2021/07/16 02:57:38;;;;;;;;;;;17.80;93.50;;;;;;4942670;28;20364;-66
2021/07/16 03:00:04;;;;;;;;;;;17.90;93.30;;;;;;4944110;28;19962;-65
2021/07/16 03:02:30;;;;;;;;;;;17.90;93.20;;;;;;4945937;28;19930;-65
2021/07/16 03:04:56;;;;;;;;;;;17.80;93.20;;;;;;4945799;28;19915;-66
2021/07/16 03:07:21;;;;;;;;;;;17.80;93.30;;;;;;4945847;29;19939;-66
2021/07/16 03:09:47;;;;;;;;;;;17.80;93.20;;;;;;4941984;28;19910;-65
2021/07/16 03:12:12;;;;;;;;;;;17.80;93.20;;;;;;4929431;29;19930;-66
2021/07/16 03:14:38;;;;;;;;;;;17.80;93.20;;;;;;4938935;29;19934;-65
2021/07/16 03:17:04;;;;;;;;;;;17.80;93.50;;;;;;4945971;29;19921;-66
2021/07/16 03:19:29;;;;;;;;;;;17.90;92.90;;;;;;4944951;28;19930;-65
2021/07/16 03:21:55;;;;;;;;;;;17.80;92.90;;;;;;4941404;28;19985;-66
2021/07/16 03:24:20;;;;;;;;;;;17.90;92.90;;;;;;4940837;29;20379;-65
2021/07/16 03:26:46;;;;;;;;;;;17.80;93.00;;;;;;4936661;28;19915;-65
2021/07/16 03:29:12;;;;;;;;;;;17.80;93.00;;;;;;4946247;28;20009;-65
2021/07/16 03:31:38;;;;;;;;;;;17.80;93.00;;;;;;4938815;28;19923;-66
2021/07/16 03:34:03;;;;;;;;;;;17.80;92.80;;;;;;4933434;29;19918;-64
2021/07/16 03:36:29;;;;;;;;;;;17.80;92.90;;;;;;4935272;28;19915;-66
2021/07/16 03:38:55;;;;;;;;;;;17.90;93.00;;;;;;4945129;28;19918;-65
2021/07/16 03:41:20;;;;;;;;;;;17.90;92.80;;;;;;4942044;28;19945;-65
2021/07/16 03:43:46;;;;;;;;;;;17.90;92.90;;;;;;4935816;28;19914;-65
2021/07/16 03:46:11;;;;;;;;;;;18.00;92.90;;;;;;4939135;28;19922;-65
2021/07/16 03:48:37;;;;;;;;;;;17.90;92.90;;;;;;4942862;28;19946;-66
2021/07/16 03:51:02;;;;;;;;;;;17.80;92.90;;;;;;4940291;29;19991;-66
2021/07/16 03:53:28;;;;;;;;;;;17.90;92.70;;;;;;4939279;29;19938;-66
2021/07/16 03:55:53;;;;;;;;;;;17.90;92.60;;;;;;4938675;28;19933;-65
2021/07/16 03:58:19;;;;;;;;;;;17.90;92.70;;;;;;4941216;29;19989;-65
2021/07/16 04:00:44;;;;;;;;;;;17.80;92.90;;;;;;4938768;28;19925;-66
2021/07/16 04:03:10;;;;;;;;;;;17.90;93.00;;;;;;4938299;28;20153;-65
2021/07/16 04:05:37;;;;;;;;;;;17.70;92.80;;;;;;4935640;29;20369;-66
2021/07/16 04:08:04;;;;;;;;;;;17.70;93.10;;;;;;4935733;29;20234;-65
2021/07/16 04:10:31;;;;;;;;;;;17.70;93.20;;;;;;4942891;29;20371;-66
2021/07/16 04:12:57;;;;;;;;;;;17.70;93.20;;;;;;4934777;28;19938;-66
2021/07/16 04:15:25;;;;;;;;;;;17.80;92.90;;;;;;4951340;28;19993;-65
2021/07/16 04:17:55;;;;;;;;;;;17.80;93.00;;;;;;4937039;28;19918;-65
2021/07/16 04:20:21;;;;;;;;;;;17.90;92.80;;;;;;4944610;29;19926;-66
2021/07/16 04:22:46;;;;;;;;;;;18.00;92.40;;;;;;4938018;28;19915;-65
2021/07/16 04:25:14;;;;;;;;;;;18.00;92.20;;;;;;4942161;28;21692;-66
2021/07/16 04:27:43;;;;;;;;;;;18.00;91.70;;;;;;4940886;29;20003;-66
2021/07/16 04:30:10;;;;;;;;;;;18.10;91.50;;;;;;4934838;29;19930;-66
2021/07/16 04:32:39;;;;;;;;;;;18.20;91.50;;;;;;4941567;29;20543;-65
2021/07/16 04:35:05;;;;;;;;;;;18.20;91.00;;;;;;4937551;29;19930;-65
2021/07/16 04:37:31;;;;;;;;;;;18.20;90.70;;;;;;4953562;28;19989;-66
2021/07/16 04:39:56;;;;;;;;;;;18.10;91.20;;;;;;4936921;28;20327;-65
2021/07/16 04:42:22;;;;;;;;;;;18.20;90.90;;;;;;4937130;28;19984;-65
2021/07/16 04:44:48;;;;;;;;;;;18.20;91.10;;;;;;4942659;29;19934;-66
2021/07/16 04:47:13;;;;;;;;;;;18.30;90.80;;;;;;4898341;28;19961;-66
2021/07/16 04:49:39;;;;;;;;;;;18.10;91.30;;;;;;4941622;28;20400;-66
2021/07/16 04:52:04;;;;;;;;;;;18.20;91.30;;;;;;4936005;28;19919;-65
2021/07/16 04:54:30;;;;;;;;;;;18.20;90.80;;;;;;4941265;29;19919;-65
2021/07/16 04:56:56;;;;;;;;;;;18.10;91.20;;;;;;4933138;28;20356;-65
2021/07/16 04:59:21;;;;;;;;;;;18.10;91.50;;;;;;4940276;28;19942;-65
2021/07/16 05:01:48;;;;;;;;;;;18.10;91.20;;;;;;4940574;29;20153;-66
2021/07/16 05:04:15;;;;;;;;;;;18.10;91.50;;;;;;4934687;29;19919;-65
2021/07/16 05:06:40;;;;;;;;;;;18.00;91.20;;;;;;4935080;29;19914;-65
2021/07/16 05:09:06;;;;;;;;;;;18.00;91.20;;;;;;4939285;28;20190;-64
2021/07/16 05:11:31;;;;;;;;;;;18.10;91.00;;;;;;4940541;28;19919;-66
2021/07/16 05:13:57;;;;;;;;;;;18.20;90.90;;;;;;4938780;28;20272;-66
2021/07/16 05:16:23;;;;;;;;;;;18.30;90.50;;;;;;4940115;28;20343;-66
2021/07/16 05:18:48;;;;;;;;;;;18.30;90.10;;;;;;4940684;28;19919;-65
2021/07/16 05:21:14;;;;;;;;;;;18.40;90.50;;;;;;4937816;28;20411;-65
2021/07/16 05:23:40;;;;;;;;;;;18.50;90.20;;;;;;4940799;28;19988;-65
2021/07/16 05:26:06;;;;;;;;;;;18.50;90.00;;;;;;4942682;28;19918;-64
2021/07/16 05:28:31;;;;;;;;;;;18.60;89.90;;;;;;4942941;28;19959;-65
2021/07/16 05:30:57;;;;;;;;;;;18.70;89.90;;;;;;4935486;28;20265;-65
2021/07/16 05:33:23;;;;;;;;;;;18.80;89.80;;;;;;4930968;28;19918;-65
2021/07/16 05:35:49;;;;;;;;;;;18.90;89.30;;;;;;4940830;28;20044;-66
2021/07/16 05:38:14;;;;;;;;;;;18.90;89.20;;;;;;4939059;28;20501;-65
2021/07/16 05:40:40;;;;;;;;;;;18.80;89.10;;;;;;4938808;28;20053;-65
2021/07/16 05:43:06;;;;;;;;;;;18.90;89.10;;;;;;4936191;28;20017;-65
2021/07/16 05:45:32;;;;;;;;;;;19.00;88.80;;;;;;4937797;28;20403;-65
2021/07/16 05:47:59;;;;;;;;;;;19.00;88.80;;;;;;4934310;28;19918;-65
2021/07/16 05:50:25;;;;;;;;;;;19.00;88.50;;;;;;4943598;28;19921;-65
2021/07/16 05:52:51;;;;;;;;;;;19.00;88.70;;;;;;4939107;28;19918;-64
2021/07/16 05:55:16;;;;;;;;;;;19.00;89.10;;;;;;4938751;28;19922;-65
2021/07/16 05:57:42;;;;;;;;;;;18.70;89.20;;;;;;4938609;28;19929;-65
2021/07/16 06:00:07;;;;;;;;;;;18.70;89.20;;;;;;4934472;28;19938;-65
2021/07/16 06:02:33;;;;;;;;;;;18.80;89.70;;;;;;4938182;28;19950;-65
2021/07/16 06:04:59;;;;;;;;;;;18.80;89.50;;;;;;4939451;28;19926;-65
2021/07/16 06:07:24;;;;;;;;;;;18.70;89.50;;;;;;4935060;28;19914;-65
2021/07/16 06:09:50;;;;;;;;;;;18.90;89.60;;;;;;4945320;28;19934;-66
2021/07/16 06:12:16;;;;;;;;;;;19.00;89.00;;;;;;4937287;28;19926;-65
2021/07/16 06:14:42;;;;;;;;;;;19.20;88.70;;;;;;4943516;28;19926;-64
2021/07/16 06:17:08;;;;;;;;;;;19.20;88.20;;;;;;4935972;28;20077;-66
2021/07/16 06:19:33;;;;;;;;;;;19.40;87.60;;;;;;4947426;29;19915;-66
2021/07/16 06:21:58;;;;;;;;;;;19.60;87.80;;;;;;4940957;28;20347;-66
2021/07/16 06:24:24;;;;;;;;;;;19.70;86.30;;;;;;4942193;28;19925;-66
2021/07/16 06:26:50;;;;;;;;;;;19.80;86.70;;;;;;4941962;28;20409;-67
2021/07/16 06:29:15;;;;;;;;;;;19.90;86.40;;;;;;4942551;28;20319;-66
2021/07/16 06:31:41;;;;;;;;;;;20.00;85.80;;;;;;4940208;28;19977;-67
2021/07/16 06:34:06;;;;;;;;;;;19.90;85.60;;;;;;4939763;28;19953;-67
2021/07/16 06:36:31;;;;;;;;;;;19.80;85.80;;;;;;4947811;28;20323;-66
2021/07/16 06:38:57;;;;;;;;;;;19.90;86.40;;;;;;4945383;28;19922;-66
2021/07/16 06:41:22;;;;;;;;;;;20.00;86.20;;;;;;4933190;28;19966;-66
2021/07/16 06:43:48;;;;;;;;;;;20.00;85.50;;;;;;4949568;28;19922;-66
2021/07/16 06:46:14;;;;;;;;;;;20.00;85.40;;;;;;4947823;28;19911;-66
2021/07/16 06:48:43;;;;;;;;;;;20.00;85.50;;;;;;4937752;28;20038;-66
2021/07/16 06:51:12;;;;;;;;;;;20.20;85.30;;;;;;4936721;28;20377;-66
2021/07/16 06:53:37;;;;;;;;;;;20.10;84.90;;;;;;4935210;28;19930;-65
2021/07/16 06:56:03;;;;;;;;;;;20.20;85.00;;;;;;4943129;28;19957;-67
2021/07/16 06:58:28;;;;;;;;;;;20.50;84.00;;;;;;4939422;28;19977;-66
2021/07/16 07:00:54;;;;;;;;;;;20.30;84.20;;;;;;4946061;28;19975;-67
2021/07/16 07:03:20;;;;;;;;;;;20.50;84.70;;;;;;4937358;28;19968;-67
2021/07/16 07:05:45;;;;;;;;;;;20.80;84.40;;;;;;4942809;28;20018;-66
2021/07/16 07:08:11;;;;;;;;;;;21.00;83.00;;;;;;4933479;28;19914;-66
2021/07/16 07:10:36;;;;;;;;;;;21.10;82.10;;;;;;4937245;28;20256;-67
2021/07/16 07:13:05;;;;;;;;;;;21.00;82.20;;;;;;4939921;29;19930;-65
2021/07/16 07:15:31;;;;;;;;;;;20.90;83.40;;;;;;4943679;28;19944;-67
2021/07/16 07:17:57;;;;;;;;;;;20.80;83.10;;;;;;4943759;28;19914;-67
2021/07/16 07:20:22;;;;;;;;;;;20.90;82.40;;;;;;4943348;28;20251;-67
2021/07/16 07:22:48;;;;;;;;;;;21.00;82.40;;;;;;4940475;28;20013;-67
2021/07/16 07:25:13;;;;;;;;;;;21.00;81.90;;;;;;4940195;28;20061;-67
2021/07/16 07:27:39;;;;;;;;;;;21.00;82.00;;;;;;4942719;28;19934;-66
2021/07/16 07:30:05;;;;;;;;;;;21.10;82.20;;;;;;4943373;28;19914;-67
2021/07/16 07:32:31;;;;;;;;;;;21.10;81.50;;;;;;4932488;29;19915;-65
2021/07/16 07:34:56;;;;;;;;;;;21.00;81.40;;;;;;4945097;28;19923;-66
2021/07/16 07:37:22;;;;;;;;;;;21.20;81.30;;;;;;4943857;29;19915;-65
2021/07/16 07:39:47;;;;;;;;;;;21.30;81.20;;;;;;4936808;28;20025;-65
2021/07/16 07:42:15;;;;;;;;;;;21.60;80.90;;;;;;4938005;29;19922;-66
2021/07/16 07:44:41;;;;;;;;;;;21.40;80.30;;;;;;4942764;28;19915;-65
2021/07/16 07:47:07;;;;;;;;;;;21.50;80.80;;;;;;4944798;28;19917;-65
2021/07/16 07:49:32;;;;;;;;;;;21.60;80.60;;;;;;4935416;28;20249;-65
2021/07/16 07:51:58;;;;;;;;;;;21.60;80.30;;;;;;4940892;29;19930;-65
2021/07/16 07:54:23;;;;;;;;;;;21.60;79.50;;;;;;4941646;28;19919;-66
2021/07/16 07:56:49;;;;;;;;;;;21.60;79.70;;;;;;4937920;28;20208;-65
2021/07/16 07:59:14;;;;;;;;;;;21.70;79.70;;;;;;4932132;28;19922;-65
2021/07/16 08:01:40;;;;;;;;;;;22.00;79.70;;;;;;4936072;28;20014;-65
2021/07/16 08:04:05;;;;;;;;;;;22.20;79.40;;;;;;4939134;28;20040;-66
2021/07/16 08:06:31;;;;;;;;;;;22.10;77.90;;;;;;4946003;28;19998;-66
2021/07/16 08:08:57;;;;;;;;;;;22.30;78.00;;;;;;4942701;28;19981;-66
2021/07/16 08:11:22;;;;;;;;;;;22.30;78.30;;;;;;4934696;28;19922;-64
2021/07/16 08:13:48;;;;;;;;;;;22.50;78.00;;;;;;4940989;28;19957;-65
2021/07/16 08:16:13;;;;;;;;;;;22.70;77.00;;;;;;4935609;28;19918;-66
2021/07/16 08:18:39;;;;;;;;;;;22.70;76.70;;;;;;4934003;28;20082;-67
2021/07/16 08:21:04;;;;;;;;;;;22.50;77.50;;;;;;4937840;28;20322;-65
2021/07/16 08:23:30;;;;;;;;;;;22.30;77.80;;;;;;4954936;28;20001;-66
2021/07/16 08:25:55;;;;;;;;;;;22.40;77.80;;;;;;4939510;28;20233;-65
2021/07/16 08:28:21;;;;;;;;;;;22.60;77.50;;;;;;4941307;28;20006;-66
2021/07/16 08:30:46;;;;;;;;;;;22.80;77.30;;;;;;4938615;28;19926;-65
2021/07/16 08:33:12;;;;;;;;;;;22.70;78.40;;;;;;4936033;28;19941;-66
2021/07/16 08:35:38;;;;;;;;;;;22.70;77.10;;;;;;4932637;28;20370;-66
2021/07/16 08:38:05;;;;;;;;;;;22.70;77.50;;;;;;4943654;28;19987;-65
2021/07/16 08:40:32;;;;;;;;;;;22.60;77.70;;;;;;4931880;28;20316;-65
2021/07/16 08:42:57;;;;;;;;;;;22.80;78.10;;;;;;4941578;28;20376;-66
2021/07/16 08:45:23;;;;;;;;;;;22.40;77.60;;;;;;4936733;28;19994;-67
2021/07/16 08:47:49;;;;;;;;;;;22.40;78.30;;;;;;4940115;28;19915;-66
2021/07/16 08:50:15;;;;;;;;;;;22.40;78.10;;;;;;4938922;28;20047;-66
2021/07/16 08:52:44;;;;;;;;;;;22.20;78.90;;;;;;4930273;29;20075;-66
2021/07/16 08:55:09;;;;;;;;;;;22.10;79.00;;;;;;4933767;28;21311;-66
2021/07/16 08:57:35;;;;;;;;;;;22.40;79.30;;;;;;4938006;28;20123;-66
2021/07/16 09:00:01;;;;;;;;;;;22.40;78.80;;;;;;4937777;28;19915;-67
2021/07/16 09:02:28;;;;;;;;;;;22.60;78.10;;;;;;4941142;28;20339;-67
2021/07/16 09:05:02;;;;;;;;;;;22.70;77.80;;;;;;4941291;28;19926;-67
2021/07/16 09:07:28;;;;;;;;;;;22.60;76.90;;;;;;4935162;29;20610;-67
2021/07/16 09:10:07;;;;;;;;;;;22.80;77.70;;;;;;4936077;28;20053;-67
2021/07/16 09:12:34;;;;;;;;;;;22.70;77.50;;;;;;4934457;28;19914;-67
2021/07/16 09:14:59;;;;;;;;;;;22.60;77.70;;;;;;4938747;28;19918;-66
2021/07/16 09:17:27;;;;;;;;;;;22.70;78.40;;;;;;4937125;28;20373;-67
2021/07/16 09:19:52;;;;;;;;;;;22.80;77.90;;;;;;4940705;28;19930;-66
2021/07/16 09:22:22;;;;;;;;;;;22.90;77.90;;;;;;4937938;28;19923;-67
2021/07/16 09:24:47;;;;;;;;;;;23.00;76.90;;;;;;4941200;28;19922;-67
2021/07/16 09:27:28;;;;;;;;;;;23.00;76.50;;;;;;4937523;28;20245;-65
2021/07/16 09:29:53;;;;;;;;;;;23.30;76.60;;;;;;4934653;28;20248;-67
2021/07/16 09:32:19;;;;;;;;;;;23.20;76.10;;;;;;4939180;29;19963;-67
2021/07/16 09:34:51;;;;;;;;;;;23.20;76.50;;;;;;4941848;29;19923;-67
2021/07/16 09:37:17;;;;;;;;;;;23.50;75.80;;;;;;4944758;28;20009;-67
2021/07/16 09:39:45;;;;;;;;;;;23.70;74.70;;;;;;4936511;28;20414;-66
2021/07/16 09:42:11;;;;;;;;;;;24.20;74.70;;;;;;4934533;28;20005;-67
2021/07/16 09:44:40;;;;;;;;;;;23.70;75.40;;;;;;4947014;29;19938;-67
2021/07/16 09:47:06;;;;;;;;;;;23.50;74.80;;;;;;4946499;29;20305;-67
2021/07/16 09:49:32;;;;;;;;;;;23.80;75.00;;;;;;4954113;28;19914;-67
2021/07/16 09:52:05;;;;;;;;;;;23.60;75.70;;;;;;4943590;29;19937;-66
2021/07/16 09:54:30;;;;;;;;;;;24.00;74.70;;;;;;4941717;28;20021;-67
2021/07/16 09:56:56;;;;;;;;;;;24.20;73.10;;;;;;4947366;28;20005;-67
2021/07/16 09:59:26;;;;;;;;;;;24.00;74.60;;;;;;4941683;29;19983;-67
2021/07/16 10:01:52;;;;;;;;;;;24.00;75.30;;;;;;4944263;29;19937;-67
2021/07/16 10:04:21;;;;;;;;;;;24.40;73.70;;;;;;4942385;28;19922;-67
2021/07/16 10:06:50;;;;;;;;;;;24.40;72.70;;;;;;4941613;28;19918;-67
2021/07/16 10:09:17;;;;;;;;;;;24.90;72.60;;;;;;4938982;28;19923;-67
2021/07/16 10:11:45;;;;;;;;;;;24.70;71.60;;;;;;4937483;28;19918;-66
2021/07/16 10:14:12;;;;;;;;;;;24.70;72.30;;;;;;4938170;28;20268;-67
2021/07/16 10:16:39;;;;;;;;;;;24.40;73.40;;;;;;4938254;28;20371;-67
2021/07/16 10:19:05;;;;;;;;;;;24.70;72.40;;;;;;4951171;28;19925;-67
2021/07/16 10:21:30;;;;;;;;;;;25.10;71.30;;;;;;4939642;28;20489;-66
2021/07/16 10:23:57;;;;;;;;;;;25.70;70.30;;;;;;4940604;28;19925;-67
2021/07/16 10:26:23;;;;;;;;;;;25.40;70.90;;;;;;4944284;28;20370;-67
2021/07/16 10:28:49;;;;;;;;;;;25.40;71.20;;;;;;4936138;28;19919;-67
2021/07/16 10:31:32;;;;;;;;;;;25.50;69.40;;;;;;4939642;28;19915;-66
2021/07/16 10:34:00;;;;;;;;;;;25.40;70.60;;;;;;4939473;28;19925;-67
2021/07/16 10:36:42;;;;;;;;;;;25.50;70.20;;;;;;4939259;28;19930;-67
2021/07/16 10:39:09;;;;;;;;;;;25.60;70.10;;;;;;4943497;28;19926;-67
2021/07/16 10:41:38;;;;;;;;;;;25.20;70.70;;;;;;4937417;28;19994;-67
2021/07/16 10:44:04;;;;;;;;;;;24.90;71.10;;;;;;4945765;28;19918;-66
2021/07/16 10:46:31;;;;;;;;;;;25.40;70.60;;;;;;4941966;28;19918;-68
2021/07/16 10:48:57;;;;;;;;;;;25.90;69.90;;;;;;4937746;28;19941;-67
2021/07/16 10:51:27;;;;;;;;;;;26.00;69.30;;;;;;4936716;29;19919;-68
2021/07/16 10:53:53;;;;;;;;;;;26.00;68.10;;;;;;4940963;28;19972;-67
2021/07/16 10:56:20;;;;;;;;;;;26.00;67.30;;;;;;4937849;28;20021;-67
2021/07/16 10:58:49;;;;;;;;;;;26.10;68.80;;;;;;4946240;28;19915;-66
2021/07/16 11:01:27;;;;;;;;;;;25.90;69.00;;;;;;4944173;28;19914;-67
2021/07/16 11:03:53;;;;;;;;;;;25.70;68.90;;;;;;4939318;28;19969;-67
2021/07/16 11:06:19;;;;;;;;;;;25.50;70.60;;;;;;4933671;28;20352;-68
2021/07/16 11:08:45;;;;;;;;;;;25.50;70.40;;;;;;4938487;29;19918;-67
2021/07/16 11:11:12;;;;;;;;;;;26.30;68.30;;;;;;4938006;28;19942;-67
2021/07/16 11:13:46;;;;;;;;;;;26.40;66.50;;;;;;4931151;28;20057;-67
2021/07/16 11:16:15;;;;;;;;;;;26.70;66.60;;;;;;4940709;28;20129;-68
2021/07/16 11:18:57;;;;;;;;;;;26.70;67.80;;;;;;4938998;29;19914;-68
2021/07/16 11:21:42;;;;;;;;;;;26.90;65.90;;;;;;4938214;29;19919;-68
2021/07/16 11:24:17;;;;;;;;;;;26.80;66.10;;;;;;4939504;28;20263;-67
2021/07/16 11:27:00;;;;;;;;;;;27.10;64.30;;;;;;4931118;28;20020;-67
2021/07/16 11:29:27;;;;;;;;;;;27.00;65.00;;;;;;4943020;28;19952;-67
2021/07/16 11:32:13;;;;;;;;;;;27.80;65.00;;;;;;4942456;28;19984;-67
2021/07/16 11:34:49;;;;;;;;;;;26.90;64.80;;;;;;4941524;28;19930;-68
2021/07/16 11:37:25;;;;;;;;;;;27.30;65.20;;;;;;4937772;29;20384;-68
2021/07/16 11:40:00;;;;;;;;;;;27.60;64.60;;;;;;4939124;28;20280;-68
2021/07/16 11:42:27;;;;;;;;;;;27.80;62.90;;;;;;4928967;28;19926;-68
2021/07/16 11:44:52;;;;;;;;;;;27.20;64.70;;;;;;4940325;29;19968;-68
2021/07/16 11:47:19;;;;;;;;;;;27.40;64.60;;;;;;4934431;28;20066;-68
2021/07/16 11:49:49;;;;;;;;;;;27.60;63.40;;;;;;4941659;28;19929;-66
2021/07/16 11:52:15;;;;;;;;;;;27.10;64.30;;;;;;4943431;28;19951;-67
2021/07/16 11:54:41;;;;;;;;;;;27.10;66.00;;;;;;4940209;28;19937;-67
2021/07/16 11:57:07;;;;;;;;;;;27.20;64.60;;;;;;4938976;28;19915;-67
2021/07/16 11:59:32;;;;;;;;;;;27.30;64.50;;;;;;4936860;28;20526;-67
2021/07/16 12:02:04;;;;;;;;;;;26.90;65.50;;;;;;4924147;28;20443;-69
2021/07/16 12:04:30;;;;;;;;;;;27.40;64.40;;;;;;4938338;29;19925;-68
2021/07/16 12:06:55;;;;;;;;;;;27.50;64.10;;;;;;4936833;28;19918;-68
2021/07/16 12:09:38;;;;;;;;;;;27.70;64.40;;;;;;4941804;28;19949;-68
2021/07/16 12:12:06;;;;;;;;;;;27.20;64.20;;;;;;4934691;28;19914;-68
2021/07/16 12:14:50;;;;;;;;;;;27.70;63.40;;;;;;4936533;28;19977;-67
2021/07/16 12:17:17;;;;;;;;;;;27.80;61.30;;;;;;4937755;28;19923;-66
2021/07/16 12:19:43;;;;;;;;;;;28.20;61.10;;;;;;4937193;28;20020;-67
2021/07/16 12:22:09;;;;;;;;;;;27.70;62.00;;;;;;4939601;28;20209;-68
2021/07/16 12:24:34;;;;;;;;;;;28.30;60.60;;;;;;4938999;29;19930;-67
2021/07/16 12:27:07;;;;;;;;;;;27.50;62.80;;;;;;4939151;28;19930;-68
2021/07/16 12:29:33;;;;;;;;;;;27.80;61.90;;;;;;4936949;28;19918;-67
2021/07/16 12:31:59;;;;;;;;;;;28.70;60.50;;;;;;4938358;29;19923;-67
2021/07/16 12:34:25;;;;;;;;;;;28.10;61.00;;;;;;4942937;28;19961;-67
2021/07/16 12:37:04;;;;;;;;;;;28.10;61.00;;;;;;4939350;28;19957;-67
2021/07/16 12:39:30;;;;;;;;;;;28.10;61.70;;;;;;4943382;28;20411;-67
2021/07/16 12:42:06;;;;;;;;;;;27.40;62.50;;;;;;4938562;29;20006;-67
2021/07/16 12:44:32;;;;;;;;;;;27.50;64.00;;;;;;4934486;29;20275;-67
2021/07/16 12:46:58;;;;;;;;;;;28.20;60.50;;;;;;4943400;28;20025;-67
2021/07/16 12:49:24;;;;;;;;;;;28.50;60.10;;;;;;4939119;28;19977;-67
2021/07/16 12:51:49;;;;;;;;;;;28.30;60.50;;;;;;4941373;28;19918;-67
2021/07/16 12:54:16;;;;;;;;;;;28.40;59.90;;;;;;4937391;28;19922;-67
2021/07/16 12:56:41;;;;;;;;;;;29.10;58.00;;;;;;4941985;28;19931;-66
2021/07/16 12:59:21;;;;;;;;;;;28.30;61.00;;;;;;4941893;28;19958;-67
2021/07/16 13:01:50;;;;;;;;;;;27.70;61.80;;;;;;4942191;28;20280;-67
2021/07/16 13:04:17;;;;;;;;;;;27.70;62.30;;;;;;4942261;28;20332;-67
2021/07/16 13:06:43;;;;;;;;;;;28.20;61.70;;;;;;4938093;28;20051;-65
2021/07/16 13:09:12;;;;;;;;;;;28.10;61.20;;;;;;4941526;28;20305;-67
2021/07/16 13:11:38;;;;;;;;;;;27.70;63.20;;;;;;4941565;28;19910;-66
2021/07/16 13:14:04;;;;;;;;;;;28.00;61.50;;;;;;4933105;28;20067;-67
2021/07/16 13:16:30;;;;;;;;;;;28.70;59.60;;;;;;4943134;28;20004;-68
2021/07/16 13:18:56;;;;;;;;;;;28.60;58.90;;;;;;4939717;28;20208;-67
2021/07/16 13:21:22;;;;;;;;;;;28.30;60.30;;;;;;4939158;29;20092;-66
2021/07/16 13:23:48;;;;;;;;;;;28.20;60.60;;;;;;4940735;28;20544;-67
2021/07/16 13:26:14;;;;;;;;;;;28.00;60.20;;;;;;4937903;28;20369;-67
2021/07/16 13:28:42;;;;;;;;;;;28.30;60.90;;;;;;4936866;28;20521;-67
2021/07/16 13:31:08;;;;;;;;;;;29.00;59.40;;;;;;4940726;29;19922;-67
2021/07/16 13:33:34;;;;;;;;;;;29.50;58.10;;;;;;4941090;28;19921;-67
2021/07/16 13:35:59;;;;;;;;;;;28.00;59.70;;;;;;4942056;28;19981;-67
2021/07/16 13:38:32;;;;;;;;;;;29.10;58.50;;;;;;4938731;28;20325;-68
2021/07/16 13:41:05;;;;;;;;;;;29.40;56.10;;;;;;4938894;28;19914;-67
2021/07/16 13:43:31;;;;;;;;;;;29.20;56.90;;;;;;4936837;28;19911;-68
2021/07/16 13:45:56;;;;;;;;;;;29.40;56.90;;;;;;4938628;29;19918;-68
2021/07/16 13:48:22;;;;;;;;;;;29.30;56.60;;;;;;4942401;28;20112;-67
2021/07/16 13:50:49;;;;;;;;;;;29.70;55.40;;;;;;4941326;28;20332;-67
2021/07/16 13:53:15;;;;;;;;;;;30.00;53.90;;;;;;4937303;28;19925;-68
2021/07/16 13:55:40;;;;;;;;;;;30.00;54.00;;;;;;4931566;28;19923;-68
2021/07/16 13:58:06;;;;;;;;;;;29.60;55.90;;;;;;4937284;28;19973;-69
2021/07/16 14:00:31;;;;;;;;;;;29.40;55.70;;;;;;4939422;28;20299;-67
2021/07/16 14:02:57;;;;;;;;;;;28.60;57.00;;;;;;4937775;28;20301;-68
2021/07/16 14:05:22;;;;;;;;;;;28.50;57.20;;;;;;4939168;29;20010;-67
2021/07/16 14:07:48;;;;;;;;;;;28.20;59.10;;;;;;4947330;28;20033;-67
2021/07/16 14:10:15;;;;;;;;;;;29.00;58.60;;;;;;4941581;29;19915;-67
2021/07/16 14:12:41;;;;;;;;;;;29.70;57.00;;;;;;4940292;28;19993;-67
2021/07/16 14:15:07;;;;;;;;;;;29.10;57.20;;;;;;4938989;29;19919;-67